createdAt,value
2023-08-15T00:00:55.813Z,100386.25
2023-08-15T00:03:23.780Z,100381.56
2023-08-15T00:05:51.619Z,100384.59
2023-08-15T00:08:19.440Z,100386.00
2023-08-15T00:10:48.590Z,100377.19
2023-08-15T00:13:16.322Z,100377.31
2023-08-15T00:15:44.104Z,100380.00
2023-08-15T00:18:11.829Z,100372.94
2023-08-15T00:20:39.606Z,100376.72
2023-08-15T00:23:07.760Z,100371.91
2023-08-15T00:25:35.612Z,100368.59
2023-08-15T00:28:05.155Z,100365.28
2023-08-15T00:30:34.073Z,100360.09
2023-08-15T00:33:02.186Z,100363.19
2023-08-15T00:35:29.937Z,100356.72
2023-08-15T00:37:58.090Z,100358.22
2023-08-15T00:40:25.879Z,100362.25
2023-08-15T00:42:53.581Z,100357.44
2023-08-15T00:45:23.626Z,100361.06
2023-08-15T00:47:51.862Z,100364.44
2023-08-15T00:50:19.827Z,100354.44
2023-08-15T00:52:47.636Z,100356.41
2023-08-15T00:55:15.506Z,100354.06
2023-08-15T00:57:43.294Z,100366.31
2023-08-15T01:00:12.857Z,100352.06
2023-08-15T01:02:42.642Z,100355.16
2023-08-15T01:05:10.539Z,100349.84
2023-08-15T01:07:38.426Z,100347.75
2023-08-15T01:10:07.498Z,100339.41
2023-08-15T01:12:44.842Z,100339.72
2023-08-15T01:15:17.856Z,100333.50
2023-08-15T01:17:56.167Z,100349.50
2023-08-15T01:20:28.823Z,100339.16
2023-08-15T01:23:01.659Z,100349.97
2023-08-15T01:25:33.980Z,100351.50
2023-08-15T01:28:02.091Z,100350.44
2023-08-15T01:30:29.855Z,100348.09
2023-08-15T01:33:06.150Z,100348.94
2023-08-15T01:35:39.968Z,100355.13
2023-08-15T01:38:12.730Z,100354.81
2023-08-15T01:40:45.941Z,100348.19
2023-08-15T01:43:18.341Z,100353.59
2023-08-15T01:45:46.264Z,100348.19
2023-08-15T01:48:14.012Z,100360.66
2023-08-15T01:50:42.001Z,100351.38
2023-08-15T01:53:09.832Z,100357.16
2023-08-15T01:55:37.569Z,100348.88
2023-08-15T01:58:06.699Z,100350.50
2023-08-15T02:00:34.388Z,100350.97
2023-08-15T02:03:02.128Z,100350.59
2023-08-15T02:05:29.970Z,100358.47
2023-08-15T02:07:57.702Z,100364.75
2023-08-15T02:10:25.457Z,100373.13
2023-08-15T02:12:53.235Z,100399.69
2023-08-15T02:15:22.357Z,100433.78
2023-08-15T02:17:50.094Z,100433.22
2023-08-15T02:20:17.969Z,100424.63
2023-08-15T02:22:45.692Z,100428.16
2023-08-15T02:25:13.488Z,100421.69
2023-08-15T02:27:41.289Z,100436.03
2023-08-15T02:30:10.390Z,100427.47
2023-08-15T02:32:39.486Z,100412.06
2023-08-15T02:35:08.459Z,100431.47
2023-08-15T02:37:36.600Z,100442.06
2023-08-15T02:40:07.268Z,100434.75
2023-08-15T02:42:35.050Z,100417.72
2023-08-15T02:45:02.839Z,100412.16
2023-08-15T02:47:30.619Z,100398.19
2023-08-15T02:49:59.697Z,100393.09
2023-08-15T02:52:27.440Z,100412.25
2023-08-15T02:54:55.207Z,100395.59
2023-08-15T02:57:23.058Z,100378.16
2023-08-15T02:59:51.178Z,100366.63
2023-08-15T03:02:18.954Z,100354.16
2023-08-15T03:04:46.768Z,100342.75
2023-08-15T03:07:15.868Z,100343.78
2023-08-15T03:09:43.640Z,100339.94
2023-08-15T03:12:11.353Z,100347.72
2023-08-15T03:14:39.112Z,100338.56
2023-08-15T03:17:08.507Z,100345.47
2023-08-15T03:19:36.367Z,100350.28
2023-08-15T03:22:04.119Z,100350.66
2023-08-15T03:24:33.206Z,100353.00
2023-08-15T03:27:03.085Z,100361.25
2023-08-15T03:29:32.189Z,100358.44
2023-08-15T03:32:00.242Z,100363.72
2023-08-15T03:34:28.096Z,100374.78
2023-08-15T03:36:55.856Z,100380.41
2023-08-15T03:39:23.561Z,100398.88
2023-08-15T03:41:52.645Z,100402.19
2023-08-15T03:44:20.322Z,100397.94
2023-08-15T03:46:48.629Z,100400.19
2023-08-15T03:49:16.453Z,100416.44
2023-08-15T03:51:47.435Z,100433.72
2023-08-15T03:54:15.656Z,100451.00
2023-08-15T03:56:43.445Z,100468.78
2023-08-15T03:59:12.638Z,100469.38
2023-08-15T04:01:40.394Z,100475.34
2023-08-15T04:04:08.649Z,100514.88
2023-08-15T04:06:38.571Z,100508.53
2023-08-15T04:09:07.400Z,100509.56
2023-08-15T04:11:35.157Z,100526.03
2023-08-15T04:14:02.872Z,100531.66
2023-08-15T04:16:32.009Z,100537.91
2023-08-15T04:18:59.835Z,100542.25
2023-08-15T04:21:27.543Z,100544.97
2023-08-15T04:23:55.278Z,100534.59
2023-08-15T04:26:23.013Z,100539.44
2023-08-15T04:28:50.710Z,100540.72
2023-08-15T04:31:18.491Z,100545.75
2023-08-15T04:33:47.635Z,100527.41
2023-08-15T04:36:15.413Z,100516.13
2023-08-15T04:38:43.145Z,100520.84
2023-08-15T04:41:10.923Z,100529.78
2023-08-15T04:43:39.317Z,100522.50
2023-08-15T04:46:07.143Z,100522.72
2023-08-15T04:48:34.882Z,100510.84
2023-08-15T04:51:04.044Z,100508.25
2023-08-15T04:53:32.072Z,100500.00
2023-08-15T04:55:59.827Z,100486.84
2023-08-15T04:58:27.557Z,100493.28
2023-08-15T05:00:55.425Z,100491.19
2023-08-15T05:03:22.180Z,100492.72
2023-08-15T05:05:50.354Z,100502.94
2023-08-15T05:08:19.450Z,100497.31
2023-08-15T05:10:47.227Z,100502.13
2023-08-15T05:13:14.925Z,100503.75
2023-08-15T05:15:43.132Z,100495.56
2023-08-15T05:18:12.346Z,100486.50
2023-08-15T05:20:40.478Z,100479.44
2023-08-15T05:23:08.243Z,100477.78
2023-08-15T05:25:37.408Z,100464.88
2023-08-15T05:28:05.971Z,100463.22
2023-08-15T05:30:33.845Z,100462.16
2023-08-15T05:33:02.110Z,100466.28
2023-08-15T05:35:30.050Z,100489.72
2023-08-15T05:37:57.943Z,100487.38
2023-08-15T05:40:26.687Z,100484.22
2023-08-15T05:42:55.873Z,100484.94
2023-08-15T05:45:23.709Z,100498.47
2023-08-15T05:47:51.914Z,100494.09
2023-08-15T05:50:19.864Z,100496.59
2023-08-15T05:52:47.617Z,100492.06
2023-08-15T05:55:15.430Z,100499.16
2023-08-15T05:57:43.186Z,100494.78
2023-08-15T06:00:14.070Z,100486.44
2023-08-15T06:02:42.101Z,100485.38
2023-08-15T06:05:10.234Z,100495.16
2023-08-15T06:07:38.004Z,100499.53
2023-08-15T06:10:07.446Z,100496.81
2023-08-15T06:12:35.313Z,100482.47
2023-08-15T06:15:03.109Z,100480.94
2023-08-15T06:17:32.232Z,100487.41
2023-08-15T06:20:01.033Z,100485.09
2023-08-15T06:22:28.735Z,100483.56
2023-08-15T06:24:56.988Z,100473.91
2023-08-15T06:27:26.376Z,100482.19
2023-08-15T06:29:54.533Z,100482.06
2023-08-15T06:32:29.125Z,100484.66
2023-08-15T06:34:58.628Z,100478.28
2023-08-15T06:37:28.831Z,100475.13
2023-08-15T06:39:56.587Z,100472.56
2023-08-15T06:42:24.313Z,100483.84
2023-08-15T06:44:52.165Z,100480.66
2023-08-15T06:47:20.440Z,100486.44
2023-08-15T06:49:48.445Z,100490.78
2023-08-15T06:52:17.615Z,100498.91
2023-08-15T06:54:45.418Z,100500.31
2023-08-15T06:57:13.211Z,100504.22
2023-08-15T06:59:41.256Z,100499.25
2023-08-15T07:02:09.229Z,100498.69
2023-08-15T07:04:41.311Z,100498.22
2023-08-15T07:07:09.576Z,100502.69
2023-08-15T07:09:38.952Z,100511.19
2023-08-15T07:12:07.138Z,100505.53
2023-08-15T07:14:35.213Z,100500.94
2023-08-15T07:17:03.498Z,100503.66
2023-08-15T07:19:31.257Z,100502.34
2023-08-15T07:22:00.773Z,100508.94
2023-08-15T07:24:28.604Z,100521.53
2023-08-15T07:26:57.717Z,100519.50
2023-08-15T07:29:25.604Z,100524.47
2023-08-15T07:31:55.063Z,100527.28
2023-08-15T07:34:23.141Z,100533.41
2023-08-15T07:36:51.954Z,100544.25
2023-08-15T07:39:19.809Z,100548.59
2023-08-15T07:41:47.631Z,100551.50
2023-08-15T07:44:17.017Z,100545.72
2023-08-15T07:46:45.773Z,100546.47
2023-08-15T07:49:13.499Z,100541.72
2023-08-15T07:51:41.557Z,100542.16
2023-08-15T07:54:09.370Z,100538.47
2023-08-15T07:56:37.084Z,100541.84
2023-08-15T07:59:05.432Z,100531.94
2023-08-15T08:01:34.632Z,100537.78
2023-08-15T08:04:02.815Z,100534.97
2023-08-15T08:09:01.587Z,100521.81
2023-08-15T08:11:29.334Z,100528.00
2023-08-15T08:13:57.042Z,100524.09
2023-08-15T08:16:24.831Z,100529.22
2023-08-15T08:18:54.000Z,100531.75
2023-08-15T08:21:24.162Z,100539.25
2023-08-15T08:23:51.902Z,100555.88
2023-08-15T08:26:20.363Z,100558.34
2023-08-15T08:28:48.696Z,100556.97
2023-08-15T08:31:16.470Z,100552.06
2023-08-15T08:33:45.271Z,100559.47
2023-08-15T08:36:14.456Z,100552.81
2023-08-15T08:38:42.237Z,100554.59
2023-08-15T08:41:10.031Z,100553.13
2023-08-15T08:43:37.999Z,100564.44
2023-08-15T08:46:07.161Z,100564.22
2023-08-15T08:48:39.054Z,100563.16
2023-08-15T08:51:08.248Z,100560.03
2023-08-15T08:53:38.385Z,100564.84
2023-08-15T08:56:08.085Z,100562.34
2023-08-15T08:58:42.342Z,100563.56
2023-08-15T09:01:11.054Z,100565.13
2023-08-15T09:03:40.330Z,100578.22
2023-08-15T09:06:08.922Z,100571.75
2023-08-15T09:08:38.044Z,100573.75
2023-08-15T09:11:06.241Z,100571.56
2023-08-15T09:13:33.968Z,100575.84
2023-08-15T09:16:05.936Z,100581.34
2023-08-15T09:18:35.512Z,100583.13
2023-08-15T09:21:06.841Z,100587.84
2023-08-15T09:23:34.983Z,100583.59
2023-08-15T09:26:13.097Z,100576.66
2023-08-15T09:28:43.233Z,100576.50
2023-08-15T09:31:15.423Z,100574.66
2023-08-15T09:33:43.796Z,100568.63
2023-08-15T09:36:14.339Z,100565.53
2023-08-15T09:38:42.068Z,100571.31
2023-08-15T09:41:14.271Z,100571.06
2023-08-15T09:43:51.429Z,100575.97
2023-08-15T09:46:19.821Z,100571.13
2023-08-15T09:48:48.810Z,100565.81
2023-08-15T09:51:18.195Z,100568.75
2023-08-15T09:53:50.275Z,100574.16
2023-08-15T09:56:21.516Z,100577.31
2023-08-15T09:58:50.075Z,100566.88
2023-08-15T10:01:23.309Z,100569.25
2023-08-15T10:03:52.158Z,100571.06
2023-08-15T10:06:22.447Z,100588.94
2023-08-15T10:08:51.167Z,100595.38
2023-08-15T10:11:20.690Z,100594.47
2023-08-15T10:13:51.471Z,100606.13
2023-08-15T10:16:20.107Z,100610.69
2023-08-15T10:18:56.065Z,100619.50
2023-08-15T10:21:24.847Z,100620.53
2023-08-15T10:23:54.848Z,100626.72
2023-08-15T10:26:25.057Z,100620.31
2023-08-15T10:28:53.652Z,100626.53
2023-08-15T10:31:36.424Z,100640.41
2023-08-15T10:34:04.768Z,100639.25
2023-08-15T10:36:32.726Z,100640.84
2023-08-15T10:39:06.430Z,100645.72
2023-08-15T10:41:43.216Z,100636.94
2023-08-15T10:44:11.541Z,100628.56
2023-08-15T10:46:42.733Z,100630.47
2023-08-15T10:49:12.615Z,100628.56
2023-08-15T10:51:42.591Z,100631.63
2023-08-15T10:54:12.106Z,100629.03
2023-08-15T10:56:42.503Z,100637.28
2023-08-15T10:59:12.873Z,100624.69
2023-08-15T11:01:43.358Z,100646.06
2023-08-15T11:04:15.747Z,100654.31
2023-08-15T11:06:43.793Z,100645.69
2023-08-15T11:09:12.141Z,100652.53
2023-08-15T11:11:45.299Z,100665.09
2023-08-15T11:14:18.410Z,100660.09
2023-08-15T11:16:47.094Z,100653.56
2023-08-15T11:19:16.812Z,100659.78
2023-08-15T11:21:47.149Z,100660.69
2023-08-15T11:24:15.346Z,100654.16
2023-08-15T11:26:45.582Z,100645.22
2023-08-15T11:29:15.186Z,100650.19
2023-08-15T11:31:43.297Z,100646.88
2023-08-15T11:34:14.421Z,100645.00
2023-08-15T11:36:43.486Z,100635.56
2023-08-15T11:39:13.693Z,100629.81
2023-08-15T11:41:41.919Z,100644.00
2023-08-15T11:44:11.046Z,100636.09
2023-08-15T11:46:54.094Z,100640.88
2023-08-15T11:49:24.233Z,100633.84
2023-08-15T11:51:52.701Z,100629.09
2023-08-15T11:54:20.591Z,100630.66
2023-08-15T11:56:53.517Z,100638.56
2023-08-15T11:59:23.281Z,100638.75
2023-08-15T12:01:51.878Z,100638.38
2023-08-15T12:04:19.937Z,100641.88
2023-08-15T12:06:47.744Z,100637.72
2023-08-15T12:09:15.571Z,100642.53
2023-08-15T12:11:43.332Z,100635.88
2023-08-15T12:14:22.136Z,100631.19
2023-08-15T12:16:51.406Z,100625.63
2023-08-15T12:19:22.488Z,100639.38
2023-08-15T12:21:52.355Z,100643.38
2023-08-15T12:24:20.305Z,100633.78
2023-08-15T12:26:48.051Z,100633.47
2023-08-15T12:29:18.184Z,100637.38
2023-08-15T12:31:47.022Z,100638.47
2023-08-15T12:34:17.899Z,100651.72
2023-08-15T12:36:45.608Z,100658.63
2023-08-15T12:39:13.354Z,100668.53
2023-08-15T12:41:41.096Z,100676.25
2023-08-15T12:44:08.984Z,100676.44
2023-08-15T12:46:37.944Z,100669.19
2023-08-15T12:49:06.100Z,100672.28
2023-08-15T12:51:35.320Z,100665.22
2023-08-15T12:54:03.159Z,100657.34
2023-08-15T12:56:31.012Z,100679.91
2023-08-15T12:58:58.797Z,100682.19
2023-08-15T13:01:26.739Z,100688.25
2023-08-15T13:03:54.986Z,100689.72
2023-08-15T13:06:23.532Z,100690.53
2023-08-15T13:08:52.834Z,100689.91
2023-08-15T13:11:23.056Z,100687.94
2023-08-15T13:13:52.561Z,100690.44
2023-08-15T13:16:20.344Z,100684.53
2023-08-15T13:18:50.466Z,100686.88
2023-08-15T13:21:18.299Z,100695.84
2023-08-15T13:23:46.668Z,100696.16
2023-08-15T13:26:19.987Z,100688.19
2023-08-15T13:28:48.661Z,100690.81
2023-08-15T13:31:17.078Z,100695.47
2023-08-15T13:33:45.377Z,100691.59
2023-08-15T13:36:13.720Z,100682.38
2023-08-15T13:38:41.448Z,100682.38
2023-08-15T13:41:09.189Z,100677.75
2023-08-15T13:43:38.537Z,100674.78
2023-08-15T13:46:07.879Z,100674.56
2023-08-15T13:48:38.943Z,100674.94
2023-08-15T13:51:15.726Z,100673.34
2023-08-15T13:53:45.830Z,100676.88
2023-08-15T13:56:15.591Z,100679.59
2023-08-15T13:58:45.702Z,100672.84
2023-08-15T14:01:16.216Z,100669.06
2023-08-15T14:03:44.158Z,100674.50
2023-08-15T14:06:12.188Z,100660.75
2023-08-15T14:11:13.931Z,100665.69
2023-08-15T14:13:43.398Z,100671.69
2023-08-15T14:16:12.707Z,100675.50
2023-08-15T14:18:40.481Z,100670.44
2023-08-15T14:21:13.490Z,100660.81
2023-08-15T14:23:45.426Z,100659.88
2023-08-15T14:26:13.680Z,100666.56
2023-08-15T14:28:42.675Z,100669.69
2023-08-15T14:31:12.413Z,100676.09
2023-08-15T14:33:40.765Z,100683.56
2023-08-15T14:36:08.830Z,100675.94
2023-08-15T14:38:36.598Z,100668.25
2023-08-15T14:41:05.664Z,100663.88
2023-08-15T14:43:33.806Z,100656.81
2023-08-15T14:46:01.672Z,100659.50
2023-08-15T14:48:31.178Z,100666.53
2023-08-15T14:50:58.946Z,100665.34
2023-08-15T14:53:29.148Z,100661.13
2023-08-15T14:55:58.098Z,100661.06
2023-08-15T14:58:25.807Z,100662.34
2023-08-15T15:00:55.258Z,100655.75
2023-08-15T15:03:23.148Z,100652.31
2023-08-15T15:05:54.729Z,100656.34
2023-08-15T15:08:23.879Z,100645.97
2023-08-15T15:10:53.933Z,100652.13
2023-08-15T15:13:21.685Z,100644.47
2023-08-15T15:15:54.408Z,100645.78
2023-08-15T15:18:22.854Z,100660.88
2023-08-15T15:20:52.064Z,100665.97
2023-08-15T15:23:19.987Z,100667.50
2023-08-15T15:25:48.283Z,100669.31
2023-08-15T15:28:16.348Z,100680.38
2023-08-15T15:30:44.180Z,100677.31
2023-08-15T15:33:13.631Z,100679.22
2023-08-15T15:35:42.641Z,100675.94
2023-08-15T15:38:12.537Z,100679.09
2023-08-15T15:40:40.299Z,100681.00
2023-08-15T15:43:08.057Z,100685.00
2023-08-15T15:45:37.352Z,100681.47
2023-08-15T15:48:06.572Z,100684.44
2023-08-15T15:50:35.000Z,100667.34
2023-08-15T15:53:05.890Z,100668.16
2023-08-15T15:55:36.020Z,100666.50
2023-08-15T15:58:03.851Z,100660.72
2023-08-15T16:00:33.643Z,100655.28
2023-08-15T16:03:01.423Z,100654.47
2023-08-15T16:05:31.595Z,100654.47
2023-08-15T16:08:00.405Z,100646.34
2023-08-15T16:10:28.325Z,100659.66
2023-08-15T16:12:58.926Z,100655.06
2023-08-15T16:15:26.843Z,100659.19
2023-08-15T16:17:54.829Z,100654.00
2023-08-15T16:20:22.661Z,100649.41
2023-08-15T16:22:50.449Z,100651.28
2023-08-15T16:25:18.289Z,100654.00
2023-08-15T16:27:47.474Z,100646.91
2023-08-15T16:30:19.001Z,100650.69
2023-08-15T16:32:50.959Z,100655.06
2023-08-15T16:35:18.970Z,100656.72
2023-08-15T16:37:47.165Z,100661.09
2023-08-15T16:40:15.046Z,100652.94
2023-08-15T16:42:43.121Z,100651.28
2023-08-15T16:45:11.809Z,100642.31
2023-08-15T16:47:41.089Z,100645.28
2023-08-15T16:50:09.686Z,100647.16
2023-08-15T16:52:37.439Z,100651.53
2023-08-15T16:55:07.416Z,100655.06
2023-08-15T16:57:35.164Z,100649.72
2023-08-15T17:00:02.980Z,100653.88
2023-08-15T17:02:32.981Z,100653.41
2023-08-15T17:05:04.469Z,100654.78
2023-08-15T17:07:34.630Z,100654.00
2023-08-15T17:10:02.469Z,100657.84
2023-08-15T17:12:30.246Z,100660.94
2023-08-15T17:14:58.009Z,100667.41
2023-08-15T17:17:27.387Z,100668.47
2023-08-15T17:19:56.947Z,100667.06
2023-08-15T17:22:26.440Z,100668.34
2023-08-15T17:24:54.265Z,100675.34
2023-08-15T17:27:22.227Z,100678.50
2023-08-15T17:29:50.010Z,100680.06
2023-08-15T17:32:18.643Z,100678.88
2023-08-15T17:34:48.537Z,100678.56
2023-08-15T17:37:16.339Z,100688.56
2023-08-15T17:39:45.515Z,100689.03
2023-08-15T17:42:13.510Z,100686.56
2023-08-15T17:44:41.544Z,100700.13
2023-08-15T17:47:09.598Z,100701.38
2023-08-15T17:49:37.374Z,100708.13
2023-08-15T17:52:05.898Z,100713.41
2023-08-15T17:54:33.733Z,100708.72
2023-08-15T17:57:04.443Z,100710.81
2023-08-15T17:59:32.445Z,100727.56
2023-08-15T18:02:01.286Z,100724.28
2023-08-15T18:04:29.270Z,100724.72
2023-08-15T18:06:57.148Z,100730.03
2023-08-15T18:09:26.137Z,100739.09
2023-08-15T18:11:54.063Z,100740.03
2023-08-15T18:14:24.841Z,100751.31
2023-08-15T18:16:52.587Z,100748.84
2023-08-15T18:19:20.394Z,100753.09
2023-08-15T18:21:50.334Z,100750.59
2023-08-15T18:24:18.764Z,100746.84
2023-08-15T18:26:46.849Z,100750.00
2023-08-15T18:29:14.693Z,100757.31
2023-08-15T18:31:43.801Z,100768.16
2023-08-15T18:34:11.541Z,100774.19
2023-08-15T18:36:39.419Z,100780.88
2023-08-15T18:39:10.172Z,100775.47
2023-08-15T18:41:38.261Z,100782.78
2023-08-15T18:44:09.037Z,100783.00
2023-08-15T18:46:42.808Z,100782.78
2023-08-15T18:49:13.901Z,100791.16
2023-08-15T18:51:41.943Z,100793.25
2023-08-15T18:54:09.960Z,100787.94
2023-08-15T18:56:39.067Z,100795.06
2023-08-15T18:59:08.645Z,100801.63
2023-08-15T19:01:36.519Z,100804.31
2023-08-15T19:04:04.668Z,100804.94
2023-08-15T19:06:34.066Z,100803.88
2023-08-15T19:09:01.805Z,100802.59
2023-08-15T19:11:29.794Z,100805.88
2023-08-15T19:13:57.762Z,100808.03
2023-08-15T19:16:25.991Z,100804.72
2023-08-15T19:18:54.054Z,100817.03
2023-08-15T19:21:21.781Z,100808.63
2023-08-15T19:23:50.922Z,100814.53
2023-08-15T19:26:18.640Z,100807.44
2023-08-15T19:28:46.408Z,100813.47
2023-08-15T19:31:16.539Z,100808.63
2023-08-15T19:33:44.337Z,100807.06
2023-08-15T19:36:12.216Z,100811.75
2023-08-15T19:38:40.002Z,100812.66
2023-08-15T19:41:11.993Z,100817.69
2023-08-15T19:43:40.528Z,100811.81
2023-08-15T19:46:08.558Z,100814.31
2023-08-15T19:48:36.676Z,100815.44
2023-08-15T19:51:05.027Z,100815.88
2023-08-15T19:53:32.793Z,100810.91
2023-08-15T19:56:00.566Z,100819.03
2023-08-15T19:58:30.816Z,100817.78
2023-08-15T20:00:58.862Z,100813.78
2023-08-15T20:03:26.731Z,100820.41
2023-08-15T20:05:54.494Z,100809.34
2023-08-15T20:08:22.208Z,100810.78
2023-08-15T20:10:54.429Z,100805.13
2023-08-15T20:13:25.019Z,100803.69
2023-08-15T20:15:56.503Z,100807.84
2023-08-15T20:18:25.652Z,100806.41
2023-08-15T20:20:54.055Z,100808.50
2023-08-15T20:23:22.274Z,100809.56
2023-08-15T20:25:50.032Z,100812.28
2023-08-15T20:28:19.071Z,100807.91
2023-08-15T20:30:47.473Z,100805.16
2023-08-15T20:33:16.729Z,100802.75
2023-08-15T20:35:44.482Z,100799.69
2023-08-15T20:38:12.337Z,100797.22
2023-08-15T20:40:41.626Z,100795.50
2023-08-15T20:43:09.657Z,100802.97
2023-08-15T20:45:38.784Z,100804.75
2023-08-15T20:48:07.430Z,100796.19
2023-08-15T20:50:36.628Z,100802.66
2023-08-15T20:53:04.456Z,100794.16
2023-08-15T20:55:32.215Z,100792.50
2023-08-15T20:57:59.967Z,100792.13
2023-08-15T21:00:27.956Z,100796.50
2023-08-15T21:02:55.682Z,100796.50
2023-08-15T21:05:23.394Z,100799.78
2023-08-15T21:07:52.569Z,100797.06
2023-08-15T21:10:20.331Z,100788.38
2023-08-15T21:12:48.140Z,100796.72
2023-08-15T21:15:16.246Z,100795.88
2023-08-15T21:17:44.040Z,100800.69
2023-08-15T21:20:12.663Z,100795.53
2023-08-15T21:22:43.735Z,100797.19
2023-08-15T21:25:12.971Z,100798.13
2023-08-15T21:27:40.687Z,100801.56
2023-08-15T21:30:09.670Z,100802.78
2023-08-15T21:32:37.467Z,100805.81
2023-08-15T21:35:05.825Z,100798.22
2023-08-15T21:37:33.610Z,100802.75
2023-08-15T21:40:01.352Z,100794.41
2023-08-15T21:42:32.056Z,100805.69
2023-08-15T21:45:01.332Z,100798.63
2023-08-15T21:47:29.050Z,100811.81
2023-08-15T21:49:56.772Z,100822.38
2023-08-15T21:52:24.512Z,100820.53
2023-08-15T21:54:52.275Z,100833.00
2023-08-15T21:57:20.206Z,100822.53
2023-08-15T21:59:49.485Z,100824.41
2023-08-15T22:02:17.686Z,100827.19
2023-08-15T22:04:46.689Z,100828.72
2023-08-15T22:07:14.441Z,100827.47
2023-08-15T22:09:42.255Z,100825.53
2023-08-15T22:12:10.133Z,100830.88
2023-08-15T22:14:37.818Z,100825.47
2023-08-15T22:17:07.032Z,100821.88
2023-08-15T22:19:34.849Z,100823.56
2023-08-15T22:22:02.569Z,100822.97
2023-08-15T22:24:30.342Z,100820.31
2023-08-15T22:26:58.096Z,100820.53
2023-08-15T22:29:25.909Z,100826.34
2023-08-15T22:31:53.696Z,100824.81
2023-08-15T22:34:22.804Z,100831.53
2023-08-15T22:36:50.586Z,100821.81
2023-08-15T22:39:18.380Z,100821.53
2023-08-15T22:41:46.124Z,100833.63
2023-08-15T22:44:13.858Z,100834.84
2023-08-15T22:46:41.648Z,100836.56
2023-08-15T22:49:09.366Z,100839.94
2023-08-15T22:51:38.487Z,100838.25
2023-08-15T22:54:07.209Z,100846.19
2023-08-15T22:56:35.005Z,100841.03
2023-08-15T22:59:02.713Z,100839.13
2023-08-15T23:01:30.542Z,100839.31
2023-08-15T23:03:58.340Z,100836.16
2023-08-15T23:06:26.109Z,100834.69
2023-08-15T23:08:55.266Z,100830.47
2023-08-15T23:11:23.746Z,100832.56
2023-08-15T23:13:51.457Z,100829.22
2023-08-15T23:16:19.155Z,100824.72
2023-08-15T23:18:46.968Z,100829.50
2023-08-15T23:21:14.678Z,100834.63
2023-08-15T23:23:44.142Z,100829.44
2023-08-15T23:26:13.253Z,100822.00
2023-08-15T23:28:41.038Z,100823.00
2023-08-15T23:31:12.372Z,100828.50
2023-08-15T23:33:40.633Z,100820.22
2023-08-15T23:36:08.403Z,100815.47
2023-08-15T23:38:36.109Z,100823.34
2023-08-15T23:41:04.180Z,100832.88
2023-08-15T23:43:33.277Z,100832.06
2023-08-15T23:46:00.968Z,100821.09
2023-08-15T23:48:28.916Z,100823.38
2023-08-15T23:50:56.689Z,100824.41
2023-08-15T23:53:24.385Z,100825.44
2023-08-15T23:55:52.321Z,100835.22
2023-08-15T23:58:20.276Z,100832.31
